createdAt,value
2023-05-23T00:00:16.599Z,40.00
2023-05-23T00:05:19.793Z,38.40
2023-05-23T00:10:23.987Z,40.72
2023-05-23T00:15:26.803Z,37.42
2023-05-23T00:20:30.379Z,36.42
2023-05-23T00:25:35.794Z,34.78
2023-05-23T00:30:38.674Z,38.05
2023-05-23T00:35:42.570Z,35.83
2023-05-23T00:40:46.817Z,37.58
2023-05-23T00:45:49.928Z,37.35
2023-05-23T00:50:53.059Z,34.95
2023-05-23T00:55:57.327Z,35.53
2023-05-23T01:01:00.860Z,40.03
2023-05-23T01:06:03.787Z,30.15
2023-05-23T01:11:18.499Z,30.73
2023-05-23T01:16:34.025Z,34.50
2023-05-23T01:21:39.254Z,31.83
2023-05-23T01:26:56.317Z,33.28
2023-05-23T01:32:01.820Z,33.28
2023-05-23T01:37:09.672Z,30.23
2023-05-23T01:42:13.037Z,33.05
2023-05-23T01:47:18.354Z,33.33
2023-05-23T01:52:22.340Z,35.15
2023-05-23T01:57:27.081Z,36.20
2023-05-23T02:02:32.640Z,38.70
2023-05-23T02:07:35.623Z,38.35
2023-05-23T02:12:38.435Z,37.92
2023-05-23T02:17:43.034Z,30.30
2023-05-23T02:22:46.517Z,25.83
2023-05-23T02:27:49.307Z,23.95
2023-05-23T02:32:53.749Z,23.10
2023-05-23T02:37:56.579Z,22.60
2023-05-23T02:42:59.397Z,21.83
2023-05-23T02:48:03.728Z,20.15
2023-05-23T02:53:06.764Z,20.90
2023-05-23T02:58:09.780Z,20.63
2023-05-23T03:03:14.100Z,23.05
2023-05-23T03:08:16.938Z,22.17
2023-05-23T03:13:19.775Z,20.92
2023-05-23T03:18:23.976Z,21.80
2023-05-23T03:23:26.759Z,24.15
2023-05-23T03:28:29.527Z,22.25
2023-05-23T03:33:33.710Z,22.98
2023-05-23T03:38:36.638Z,20.90
2023-05-23T03:43:39.500Z,22.67
2023-05-23T03:48:44.151Z,27.98
2023-05-23T03:53:47.034Z,35.13
2023-05-23T03:58:50.814Z,34.08
2023-05-23T04:03:55.108Z,36.30
2023-05-23T04:08:59.680Z,37.67
2023-05-23T04:14:02.996Z,38.72
2023-05-23T04:19:07.349Z,42.38
2023-05-23T04:24:12.035Z,43.50
2023-05-23T04:29:15.128Z,43.65
2023-05-23T04:34:22.255Z,46.75
2023-05-23T04:39:25.600Z,48.22
2023-05-23T04:44:50.070Z,53.53
2023-05-23T04:50:00.457Z,42.38
2023-05-23T04:55:03.429Z,47.55
2023-05-23T05:00:10.683Z,43.63
2023-05-23T05:05:15.552Z,40.47
2023-05-23T05:10:18.814Z,47.40
2023-05-23T05:15:21.725Z,48.97
2023-05-23T05:20:31.051Z,42.67
2023-05-23T05:25:36.184Z,44.45
2023-05-23T05:30:39.370Z,48.10
2023-05-23T05:35:43.935Z,51.10
2023-05-23T05:40:47.379Z,39.38
2023-05-23T05:45:51.521Z,44.88
2023-05-23T05:50:56.341Z,48.13
2023-05-23T05:55:59.185Z,50.53
2023-05-23T06:01:02.118Z,43.88
2023-05-23T06:06:06.906Z,45.90
2023-05-23T06:11:09.908Z,42.47
2023-05-23T06:16:13.038Z,45.17
2023-05-23T06:21:17.725Z,39.38
2023-05-23T06:26:24.881Z,38.10
2023-05-23T06:31:28.846Z,36.90
2023-05-23T06:36:33.014Z,40.88
2023-05-23T06:41:35.827Z,34.13
2023-05-23T06:46:40.479Z,38.05
2023-05-23T06:51:44.801Z,31.88
2023-05-23T06:56:48.283Z,30.92
2023-05-23T07:01:51.831Z,38.80
2023-05-23T07:06:56.103Z,35.55
2023-05-23T07:11:59.097Z,30.00
2023-05-23T07:17:02.453Z,31.50
2023-05-23T07:22:06.802Z,33.28
2023-05-23T07:27:12.422Z,29.17
2023-05-23T07:32:15.626Z,30.45
2023-05-23T07:37:21.046Z,24.27
2023-05-23T07:42:24.371Z,21.23
2023-05-23T07:47:27.624Z,17.90
2023-05-23T07:52:32.331Z,14.68
2023-05-23T07:57:36.547Z,12.77
2023-05-23T08:02:40.370Z,9.82
2023-05-23T08:07:44.643Z,11.25
2023-05-23T08:12:47.643Z,8.98
2023-05-23T08:17:56.965Z,8.13
2023-05-23T08:23:03.152Z,9.90
2023-05-23T08:28:06.475Z,8.90
2023-05-23T08:33:24.384Z,4.70
2023-05-23T08:38:31.942Z,3.35
2023-05-23T08:43:46.344Z,3.95
2023-05-23T08:48:56.574Z,5.78
2023-05-23T08:54:03.560Z,4.40
2023-05-23T08:59:07.361Z,3.47
2023-05-23T09:04:13.190Z,5.65
2023-05-23T09:09:27.324Z,6.25
2023-05-23T09:14:31.924Z,8.05
2023-05-23T09:19:42.337Z,9.32
2023-05-23T09:24:58.031Z,13.80
2023-05-23T09:30:07.434Z,14.77
2023-05-23T09:35:12.322Z,15.40
2023-05-23T09:40:17.230Z,16.55
2023-05-23T09:45:31.205Z,17.73
2023-05-23T09:50:34.792Z,26.17
2023-05-23T09:55:41.366Z,31.50
2023-05-23T10:00:46.017Z,25.27
2023-05-23T10:05:50.216Z,26.33
2023-05-23T10:11:28.330Z,22.33
2023-05-23T10:16:41.431Z,28.50
2023-05-23T10:21:50.952Z,19.52
2023-05-23T10:26:57.501Z,23.67
2023-05-23T10:32:03.306Z,24.70
2023-05-23T10:37:07.539Z,19.40
2023-05-23T10:42:14.965Z,17.27
2023-05-23T10:47:28.718Z,15.10
2023-05-23T10:52:41.212Z,14.18
2023-05-23T10:57:44.681Z,14.32
2023-05-23T11:03:00.915Z,14.82
2023-05-23T11:08:13.625Z,14.88
2023-05-23T11:13:16.516Z,19.65
2023-05-23T11:18:25.602Z,16.75
2023-05-23T11:23:41.882Z,17.73
2023-05-23T11:28:56.889Z,21.00
2023-05-23T11:34:02.647Z,21.20
2023-05-23T11:39:05.790Z,14.18
2023-05-23T11:44:14.935Z,16.73
2023-05-23T11:49:19.165Z,16.67
2023-05-23T11:54:24.418Z,17.60
2023-05-23T11:59:28.391Z,14.18
2023-05-23T12:04:32.627Z,17.15
2023-05-23T12:09:43.408Z,17.20
2023-05-23T12:14:46.626Z,17.45
2023-05-23T12:19:51.674Z,21.17
2023-05-23T12:24:55.514Z,20.00
2023-05-23T12:30:10.481Z,17.00
2023-05-23T12:35:16.509Z,12.85
2023-05-23T12:40:20.725Z,17.10
2023-05-23T12:45:24.488Z,12.45
2023-05-23T12:50:28.738Z,11.30
2023-05-23T12:55:31.552Z,16.50
2023-05-23T13:00:34.386Z,13.48
2023-05-23T13:05:39.527Z,13.20
2023-05-23T13:10:42.573Z,17.50
2023-05-23T13:15:46.799Z,12.07
2023-05-23T13:20:52.402Z,12.93
2023-05-23T13:25:55.304Z,15.95
2023-05-23T13:30:58.143Z,19.45
2023-05-23T13:36:02.325Z,16.55
2023-05-23T13:41:05.160Z,15.38
2023-05-23T13:46:08.072Z,16.58
2023-05-23T13:51:12.350Z,16.00
2023-05-23T13:56:16.893Z,13.55
2023-05-23T14:01:20.017Z,8.75
2023-05-23T14:06:24.196Z,15.60
2023-05-23T14:11:28.441Z,15.02
2023-05-23T14:16:31.456Z,14.63
2023-05-23T14:21:36.317Z,11.18
2023-05-23T14:26:39.158Z,10.95
2023-05-23T14:31:42.084Z,12.93
2023-05-23T14:36:46.277Z,13.88
2023-05-23T14:41:49.392Z,10.95
2023-05-23T14:46:52.164Z,8.40
2023-05-23T14:51:56.311Z,12.77
2023-05-23T14:56:59.139Z,17.13
2023-05-23T15:02:04.019Z,13.73
2023-05-23T15:07:08.207Z,8.90
2023-05-23T15:12:11.014Z,11.25
2023-05-23T15:17:19.758Z,10.52
2023-05-23T15:22:37.763Z,8.73
2023-05-23T15:27:42.408Z,11.18
2023-05-23T15:32:45.329Z,11.57
2023-05-23T15:37:49.517Z,13.80
2023-05-23T15:42:52.665Z,11.60
2023-05-23T15:47:55.632Z,8.25
2023-05-23T15:52:59.884Z,11.50
2023-05-23T15:58:02.823Z,9.88
2023-05-23T16:03:05.803Z,13.75
2023-05-23T16:08:10.129Z,9.98
2023-05-23T16:13:12.963Z,14.38
2023-05-23T16:18:16.138Z,13.32
2023-05-23T16:23:20.575Z,10.95
2023-05-23T16:28:23.552Z,15.73
2023-05-23T16:33:26.388Z,12.23
2023-05-23T16:38:30.578Z,15.65
2023-05-23T16:43:34.375Z,9.38
2023-05-23T16:48:37.211Z,13.02
2023-05-23T16:53:41.432Z,8.45
2023-05-23T16:58:44.235Z,10.00
2023-05-23T17:03:47.180Z,11.40
2023-05-23T17:08:52.687Z,10.13
2023-05-23T17:13:55.626Z,15.48
2023-05-23T17:18:58.501Z,10.07
2023-05-23T17:24:03.380Z,9.80
2023-05-23T17:29:06.625Z,14.75
2023-05-23T17:34:11.920Z,8.32
2023-05-23T17:39:16.481Z,8.82
2023-05-23T17:44:19.572Z,11.77
2023-05-23T17:49:22.525Z,7.43
2023-05-23T17:54:26.721Z,13.02
2023-05-23T17:59:29.626Z,15.30
2023-05-23T18:04:32.468Z,12.48
2023-05-23T18:09:36.920Z,10.80
2023-05-23T18:14:40.509Z,10.05
2023-05-23T18:19:43.390Z,11.27
2023-05-23T18:24:47.726Z,11.13
2023-05-23T18:29:50.636Z,13.02
2023-05-23T18:34:53.754Z,10.50
2023-05-23T18:39:59.334Z,9.68
2023-05-23T18:45:02.348Z,9.30
2023-05-23T18:50:06.534Z,17.20
2023-05-23T18:55:11.693Z,9.40
2023-05-23T19:00:16.000Z,8.48
2023-05-23T19:05:18.894Z,11.93
2023-05-23T19:10:23.080Z,11.52
2023-05-23T19:15:25.925Z,9.30
2023-05-23T19:20:28.773Z,9.43
2023-05-23T19:25:33.013Z,10.43
2023-05-23T19:30:36.013Z,14.82
2023-05-23T19:35:38.898Z,11.50
2023-05-23T19:40:43.299Z,12.10
2023-05-23T19:45:46.386Z,18.02
2023-05-23T19:50:49.310Z,10.23
2023-05-23T19:55:53.628Z,9.45
2023-05-23T20:00:56.723Z,12.63
2023-05-23T20:06:00.219Z,18.90
2023-05-23T20:11:04.532Z,15.63
2023-05-23T20:16:08.324Z,12.77
2023-05-23T20:21:11.560Z,16.95
2023-05-23T20:26:15.778Z,16.80
2023-05-23T20:31:19.196Z,21.85
2023-05-23T20:36:23.448Z,16.77
2023-05-23T20:41:29.399Z,16.35
2023-05-23T20:46:32.320Z,14.52
2023-05-23T20:51:37.184Z,13.40
2023-05-23T20:56:41.912Z,21.30
2023-05-23T21:01:44.888Z,13.48
2023-05-23T21:06:47.956Z,17.02
2023-05-23T21:11:52.150Z,11.52
2023-05-23T21:16:55.012Z,14.15
2023-05-23T21:21:57.885Z,13.57
2023-05-23T21:27:03.008Z,14.90
2023-05-23T21:32:06.175Z,19.98
2023-05-23T21:37:09.199Z,12.98
2023-05-23T21:42:13.518Z,16.02
2023-05-23T21:47:16.363Z,14.20
2023-05-23T21:52:19.591Z,14.45
2023-05-23T21:57:23.814Z,16.23
2023-05-23T22:02:26.820Z,10.38
2023-05-23T22:07:29.715Z,16.48
2023-05-23T22:12:33.964Z,12.77
2023-05-23T22:17:36.868Z,11.82
2023-05-23T22:22:40.472Z,15.05
2023-05-23T22:27:44.832Z,10.55
2023-05-23T22:32:47.685Z,16.65
2023-05-23T22:37:50.638Z,11.05
2023-05-23T22:42:54.840Z,14.10
2023-05-23T22:47:58.160Z,12.40
2023-05-23T22:53:01.699Z,12.63
2023-05-23T22:58:07.725Z,20.90
2023-05-23T23:03:10.683Z,20.35
2023-05-23T23:08:13.557Z,14.45
2023-05-23T23:13:17.757Z,14.65
2023-05-23T23:18:20.557Z,13.30
2023-05-23T23:23:23.384Z,13.93
2023-05-23T23:28:27.592Z,17.98
2023-05-23T23:33:30.431Z,15.70
2023-05-23T23:38:33.321Z,17.65
2023-05-23T23:43:37.535Z,18.77
2023-05-23T23:48:40.313Z,18.45
2023-05-23T23:53:44.502Z,16.05
2023-05-23T23:58:49.898Z,15.32
